Terminal Aerodrome Forecast
Issued by NWS Corpus Christi, TX

Home | Current Version | Previous Version | Text Only | Print | Product List | Glossary On
Versions: 1 2 3 4 5 6 7 8 9 10 11 12 13
688
FTUS44 KCRP 052331
TAFVCT
TAF
KVCT 052331Z 0600/0624 13012KT P6SM BKN060
     FM060200 09006KT P6SM SCT025 OVC040
     FM060800 04006KT P6SM VCSH SCT015 OVC025
      TEMPO 0608/0612 4SM SHRA BR BKN015
     FM061200 28008KT P6SM SCT025 BKN050
     FM061500 32015G26KT P6SM SKC=

USA.gov is the U.S. government's official web portal to all federal, state and local government web resources and services.